createdAt,value
2018-01-03T00:02:19.783Z,2.00
2018-01-03T00:04:46.909Z,2.10
2018-01-03T00:07:13.330Z,2.00
2018-01-03T00:09:40.511Z,2.10
2018-01-03T00:12:07.670Z,2.10
2018-01-03T00:14:34.805Z,2.10
2018-01-03T00:17:01.180Z,2.00
2018-01-03T00:19:27.596Z,2.10
2018-01-03T00:21:54.738Z,2.10
2018-01-03T00:24:21.855Z,2.10
2018-01-03T00:26:48.272Z,2.00
2018-01-03T00:29:14.698Z,2.10
2018-01-03T00:31:41.073Z,2.10
2018-01-03T00:34:07.491Z,2.10
2018-01-03T00:36:33.902Z,2.10
2018-01-03T00:39:00.289Z,2.10
2018-01-03T00:41:27.446Z,2.20
2018-01-03T00:43:54.586Z,2.20
2018-01-03T00:46:21.729Z,2.20
2018-01-03T00:48:48.150Z,2.20
2018-01-03T00:51:14.636Z,2.20
2018-01-03T00:53:41.058Z,2.30
2018-01-03T00:56:08.267Z,2.30
2018-01-03T00:58:34.714Z,2.20
2018-01-03T01:01:01.106Z,2.30
2018-01-03T01:03:27.540Z,2.30
2018-01-03T01:05:53.954Z,2.40
2018-01-03T01:08:20.337Z,2.40
2018-01-03T01:10:46.727Z,2.40
2018-01-03T01:13:13.138Z,2.40
2018-01-03T01:15:39.518Z,2.50
2018-01-03T01:18:06.987Z,2.50
2018-01-03T01:20:33.367Z,2.50
2018-01-03T01:22:59.797Z,2.60
2018-01-03T01:25:26.941Z,2.80
2018-01-03T01:27:53.321Z,2.70
2018-01-03T01:30:19.742Z,2.70
2018-01-03T01:32:46.129Z,2.70
2018-01-03T01:35:12.558Z,2.70
2018-01-03T01:37:38.963Z,2.70
2018-01-03T01:40:05.367Z,2.70
2018-01-03T01:42:32.504Z,2.60
2018-01-03T01:44:59.626Z,2.60
2018-01-03T01:47:26.032Z,2.50
2018-01-03T01:49:52.443Z,2.50
2018-01-03T01:52:18.838Z,2.50
2018-01-03T01:54:45.241Z,2.50
2018-01-03T01:57:11.634Z,2.40
2018-01-03T01:59:38.824Z,2.40
2018-01-03T02:02:05.057Z,2.30
2018-01-03T02:04:31.261Z,2.30
2018-01-03T02:06:57.498Z,2.30
2018-01-03T02:09:23.713Z,2.30
2018-01-03T02:11:50.681Z,2.30
2018-01-03T02:14:16.896Z,2.20
2018-01-03T02:16:43.113Z,2.30
2018-01-03T02:19:10.113Z,2.30
2018-01-03T02:21:36.540Z,2.20
2018-01-03T02:24:02.937Z,2.30
2018-01-03T02:26:30.057Z,2.30
2018-01-03T02:28:56.578Z,2.20
2018-01-03T02:31:23.713Z,2.20
2018-01-03T02:33:50.111Z,2.20
2018-01-03T02:36:16.555Z,2.20
2018-01-03T02:38:42.937Z,2.30
2018-01-03T02:41:09.363Z,2.30
2018-01-03T02:43:35.754Z,2.30
2018-01-03T02:46:02.170Z,2.30
2018-01-03T02:48:29.311Z,2.30
2018-01-03T02:50:56.438Z,2.30
2018-01-03T02:53:22.672Z,2.20
2018-01-03T02:55:48.893Z,2.30
2018-01-03T02:58:15.180Z,2.30
2018-01-03T03:00:41.421Z,2.30
2018-01-03T03:03:07.651Z,2.30
2018-01-03T03:05:33.962Z,2.30
2018-01-03T03:08:00.916Z,2.30
2018-01-03T03:10:27.887Z,2.30
2018-01-03T03:12:54.096Z,2.30
2018-01-03T03:15:20.323Z,2.30
2018-01-03T03:17:46.551Z,2.30
2018-01-03T03:20:13.492Z,2.30
2018-01-03T03:22:40.488Z,2.30
2018-01-03T03:25:06.687Z,2.30
2018-01-03T03:27:32.940Z,2.30
2018-01-03T03:29:59.159Z,2.30
2018-01-03T03:32:25.361Z,2.30
2018-01-03T03:34:52.349Z,2.30
2018-01-03T03:37:18.561Z,2.30
2018-01-03T03:39:44.784Z,2.30
2018-01-03T03:42:10.989Z,2.30
2018-01-03T03:44:37.952Z,2.30
2018-01-03T03:47:04.187Z,2.20
2018-01-03T03:49:30.425Z,2.30
2018-01-03T03:51:56.651Z,2.30
2018-01-03T03:54:22.854Z,2.30
2018-01-03T03:56:49.820Z,2.30
2018-01-03T03:59:16.084Z,2.30
2018-01-03T04:01:42.317Z,2.40
2018-01-03T04:04:08.541Z,2.40
2018-01-03T04:06:34.748Z,2.40
2018-01-03T04:09:00.977Z,2.50
2018-01-03T04:11:27.210Z,2.50
2018-01-03T04:13:53.421Z,2.60
2018-01-03T04:16:20.384Z,2.60
2018-01-03T04:18:46.606Z,2.60
2018-01-03T04:21:12.816Z,2.60
2018-01-03T04:23:39.775Z,2.70
2018-01-03T04:26:06.753Z,2.80
2018-01-03T04:28:32.952Z,2.70
2018-01-03T04:30:59.933Z,2.90
2018-01-03T04:33:26.123Z,2.80
2018-01-03T04:35:53.108Z,3.00
2018-01-03T04:38:19.336Z,3.00
2018-01-03T04:40:45.540Z,3.10
2018-01-03T04:43:11.789Z,3.10
2018-01-03T04:45:37.997Z,3.20
2018-01-03T04:48:04.265Z,3.30
2018-01-03T04:50:30.513Z,3.30
2018-01-03T04:52:56.715Z,3.30
2018-01-03T04:55:22.947Z,3.30
2018-01-03T04:57:49.148Z,3.30
2018-01-03T05:00:15.384Z,3.40
2018-01-03T05:02:41.649Z,3.40
2018-01-03T05:05:08.814Z,3.40
2018-01-03T05:07:35.234Z,3.30
2018-01-03T05:10:01.610Z,3.40
2018-01-03T05:12:28.790Z,3.50
2018-01-03T05:14:55.154Z,3.40
2018-01-03T05:17:21.567Z,3.50
2018-01-03T05:19:47.998Z,3.50
2018-01-03T05:22:14.382Z,3.50
2018-01-03T05:24:40.826Z,3.60
2018-01-03T05:27:07.959Z,3.70
2018-01-03T05:29:34.378Z,3.70
2018-01-03T05:32:00.791Z,3.70
2018-01-03T05:34:27.182Z,3.70
2018-01-03T05:36:54.330Z,3.80
2018-01-03T05:39:21.449Z,3.80
2018-01-03T05:41:47.853Z,3.80
2018-01-03T05:44:14.270Z,3.80
2018-01-03T05:46:40.689Z,3.90
2018-01-03T05:49:07.851Z,3.90
2018-01-03T05:51:34.978Z,3.80
2018-01-03T05:54:01.373Z,3.80
2018-01-03T05:56:27.754Z,3.80
2018-01-03T05:58:54.908Z,3.80
2018-01-03T06:01:22.098Z,3.80
2018-01-03T06:03:48.485Z,3.70
2018-01-03T06:06:14.902Z,3.80
2018-01-03T06:08:41.286Z,3.80
2018-01-03T06:11:07.681Z,3.80
2018-01-03T06:13:34.085Z,3.80
2018-01-03T06:16:00.489Z,3.80
2018-01-03T06:18:26.898Z,3.90
2018-01-03T06:20:54.018Z,4.00
2018-01-03T06:23:20.429Z,4.00
2018-01-03T06:25:46.818Z,4.10
2018-01-03T06:28:13.961Z,4.20
2018-01-03T06:30:41.098Z,4.30
2018-01-03T06:33:07.497Z,4.20
2018-01-03T06:35:33.908Z,4.30
2018-01-03T06:38:00.296Z,4.40
2018-01-03T06:40:26.709Z,4.40
2018-01-03T06:42:54.381Z,4.50
2018-01-03T06:45:20.854Z,4.50
2018-01-03T06:47:47.245Z,4.50
2018-01-03T06:50:13.624Z,4.60
2018-01-03T06:52:40.765Z,4.60
2018-01-03T06:55:07.157Z,4.60
2018-01-03T06:57:33.586Z,4.70
2018-01-03T06:59:59.998Z,4.70
2018-01-03T07:02:26.414Z,4.70
2018-01-03T07:04:53.565Z,4.70
2018-01-03T07:07:20.690Z,4.70
2018-01-03T07:09:47.095Z,4.70
2018-01-03T07:12:14.399Z,4.70
2018-01-03T07:14:41.537Z,4.60
2018-01-03T07:17:07.965Z,4.60
2018-01-03T07:19:34.362Z,4.60
2018-01-03T07:22:00.774Z,4.60
2018-01-03T07:24:27.181Z,4.60
2018-01-03T07:26:53.625Z,4.60
2018-01-03T07:29:20.772Z,4.70
2018-01-03T07:31:47.921Z,4.60
2018-01-03T07:34:15.047Z,4.60
2018-01-03T07:36:41.461Z,4.50
2018-01-03T07:39:07.849Z,4.50
2018-01-03T07:41:35.003Z,4.50
2018-01-03T07:44:02.126Z,4.50
2018-01-03T07:46:28.541Z,4.40
2018-01-03T07:48:55.733Z,4.50
2018-01-03T07:51:22.878Z,4.60
2018-01-03T07:53:49.279Z,4.50
2018-01-03T07:56:15.651Z,4.60
2018-01-03T07:58:42.789Z,4.70
2018-01-03T08:01:09.216Z,4.70
2018-01-03T08:03:35.631Z,4.80
2018-01-03T08:06:02.022Z,4.90
2018-01-03T08:08:29.178Z,5.00
2018-01-03T08:10:55.559Z,4.90
2018-01-03T08:13:21.963Z,5.10
2018-01-03T08:15:48.340Z,5.40
2018-01-03T08:18:14.758Z,5.60
2018-01-03T08:20:41.175Z,5.80
2018-01-03T08:23:07.604Z,6.00
2018-01-03T08:25:34.005Z,6.60
2018-01-03T08:28:01.121Z,7.90
2018-01-03T08:30:27.528Z,7.80
2018-01-03T08:32:53.938Z,8.10
2018-01-03T08:35:20.327Z,8.10
2018-01-03T08:37:46.734Z,8.30
2018-01-03T08:40:13.144Z,8.60
2018-01-03T08:42:39.547Z,10.00
2018-01-03T08:45:06.686Z,11.60
2018-01-03T08:47:33.911Z,11.50
2018-01-03T08:50:00.284Z,11.90
2018-01-03T08:52:27.466Z,12.40
2018-01-03T08:54:53.844Z,12.30
2018-01-03T08:57:20.259Z,12.80
2018-01-03T08:59:46.686Z,12.80
2018-01-03T09:02:13.102Z,13.00
2018-01-03T09:04:39.545Z,12.90
2018-01-03T09:07:05.923Z,13.20
2018-01-03T09:09:32.338Z,13.40
2018-01-03T09:11:58.741Z,13.20
2018-01-03T09:14:25.117Z,12.70
2018-01-03T09:16:51.522Z,12.00
2018-01-03T09:19:17.913Z,11.70
2018-01-03T09:21:45.057Z,11.40
2018-01-03T09:24:11.490Z,11.30
2018-01-03T09:26:37.868Z,11.00
2018-01-03T09:29:04.265Z,9.60
2018-01-03T09:31:30.638Z,9.00
2018-01-03T09:33:57.042Z,8.60
2018-01-03T09:36:24.177Z,8.00
2018-01-03T09:38:50.554Z,8.00
2018-01-03T09:41:16.945Z,7.70
2018-01-03T09:43:43.331Z,7.50
2018-01-03T09:46:09.730Z,7.40
2018-01-03T09:48:36.861Z,7.20
2018-01-03T09:51:03.237Z,7.10
2018-01-03T09:53:29.638Z,7.10
2018-01-03T09:55:56.760Z,7.00
2018-01-03T09:58:23.165Z,6.90
2018-01-03T10:00:49.617Z,6.80
2018-01-03T10:03:16.004Z,6.60
2018-01-03T10:05:43.139Z,6.40
2018-01-03T10:08:09.359Z,6.30
2018-01-03T10:10:35.758Z,6.30
2018-01-03T10:13:02.193Z,6.20
2018-01-03T10:15:28.589Z,6.20
2018-01-03T10:17:55.730Z,6.10
2018-01-03T10:20:22.679Z,6.10
2018-01-03T10:22:49.653Z,6.10
2018-01-03T10:25:16.029Z,6.00
2018-01-03T10:27:42.424Z,6.10
2018-01-03T10:30:08.807Z,6.10
2018-01-03T10:32:35.213Z,6.10
2018-01-03T10:35:01.480Z,6.00
2018-01-03T10:37:27.671Z,6.00
2018-01-03T10:39:53.903Z,5.90
2018-01-03T10:42:20.102Z,5.90
2018-01-03T10:44:46.323Z,5.90
2018-01-03T10:47:13.498Z,5.80
2018-01-03T10:49:39.702Z,5.70
2018-01-03T10:52:06.671Z,5.70
2018-01-03T10:54:32.885Z,5.70
2018-01-03T10:56:59.108Z,5.70
2018-01-03T10:59:26.082Z,5.50
2018-01-03T11:01:52.285Z,5.50
2018-01-03T11:04:19.333Z,5.50
2018-01-03T11:06:46.283Z,5.40
2018-01-03T11:09:13.271Z,5.40
2018-01-03T11:11:39.496Z,5.30
2018-01-03T11:14:05.696Z,5.40
2018-01-03T11:16:31.925Z,5.30
2018-01-03T11:18:58.124Z,5.30
2018-01-03T11:21:31.308Z,5.30
2018-01-03T11:23:57.527Z,5.30
2018-01-03T11:26:23.738Z,5.20
2018-01-03T11:28:49.939Z,5.20
2018-01-03T11:31:16.173Z,5.10
2018-01-03T11:33:42.372Z,5.10
2018-01-03T11:36:08.591Z,5.00
2018-01-03T11:38:34.825Z,5.00
2018-01-03T11:41:01.024Z,5.00
2018-01-03T11:43:27.254Z,5.00
2018-01-03T11:45:53.457Z,5.00
2018-01-03T11:48:19.690Z,5.00
2018-01-03T11:50:45.896Z,5.00
2018-01-03T11:53:12.851Z,5.20
2018-01-03T11:55:39.048Z,5.20
2018-01-03T11:58:05.277Z,5.30
2018-01-03T12:00:31.503Z,5.40
2018-01-03T12:02:57.736Z,5.40
2018-01-03T12:05:23.966Z,5.50
2018-01-03T12:07:50.171Z,5.50
2018-01-03T12:10:16.400Z,5.40
2018-01-03T12:12:42.625Z,5.50
2018-01-03T12:15:08.819Z,5.50
2018-01-03T12:17:35.056Z,5.50
2018-01-03T12:20:01.260Z,5.40
2018-01-03T12:22:28.232Z,5.20
2018-01-03T12:24:54.452Z,5.20
2018-01-03T12:27:20.644Z,5.10
2018-01-03T12:29:46.885Z,5.10
2018-01-03T12:32:13.090Z,5.00
2018-01-03T12:34:39.312Z,5.00
2018-01-03T12:37:05.669Z,5.10
2018-01-03T12:39:31.868Z,5.10
2018-01-03T12:41:58.096Z,5.10
2018-01-03T12:44:24.297Z,5.10
2018-01-03T12:46:50.517Z,5.10
2018-01-03T12:49:17.509Z,5.10
2018-01-03T12:51:43.717Z,5.10
2018-01-03T12:54:09.946Z,5.10
2018-01-03T12:56:36.140Z,5.10
2018-01-03T12:59:03.105Z,5.00
2018-01-03T13:01:29.333Z,4.90
2018-01-03T13:03:55.944Z,4.90
2018-01-03T13:06:22.361Z,5.00
2018-01-03T13:08:48.740Z,5.00
2018-01-03T13:11:15.141Z,5.00
2018-01-03T13:13:41.542Z,4.90
2018-01-03T13:16:07.979Z,4.90
2018-01-03T13:18:34.399Z,4.90
2018-01-03T13:21:00.766Z,4.80
2018-01-03T13:23:27.193Z,4.90
2018-01-03T13:25:53.606Z,5.00
2018-01-03T13:28:19.990Z,5.10
2018-01-03T13:30:47.169Z,5.40
2018-01-03T13:33:13.556Z,5.30
2018-01-03T13:35:39.972Z,5.40
2018-01-03T13:38:06.372Z,5.30
2018-01-03T13:40:32.746Z,5.20
2018-01-03T13:42:59.146Z,5.20
2018-01-03T13:45:25.545Z,5.10
2018-01-03T13:47:52.708Z,4.80
2018-01-03T13:50:19.875Z,4.80
2018-01-03T13:52:46.268Z,4.70
2018-01-03T13:55:12.496Z,4.80
2018-01-03T13:57:38.698Z,4.80
2018-01-03T14:00:04.925Z,4.80
2018-01-03T14:02:31.248Z,4.90
2018-01-03T14:04:57.484Z,4.90
2018-01-03T14:07:23.902Z,4.80
2018-01-03T14:09:50.287Z,5.00
2018-01-03T14:12:16.718Z,5.00
2018-01-03T14:14:43.133Z,5.00
2018-01-03T14:17:09.706Z,5.00
2018-01-03T14:19:36.848Z,5.10
2018-01-03T14:22:03.062Z,5.10
2018-01-03T14:24:29.305Z,5.20
2018-01-03T14:26:55.507Z,5.30
2018-01-03T14:29:21.733Z,5.40
2018-01-03T14:31:47.960Z,5.40
2018-01-03T14:34:14.157Z,5.30
2018-01-03T14:36:41.121Z,5.30
2018-01-03T14:39:07.348Z,5.20
2018-01-03T14:41:33.572Z,5.20
2018-01-03T14:43:59.776Z,5.20
2018-01-03T14:46:25.971Z,5.10
2018-01-03T14:48:52.180Z,4.90
2018-01-03T14:51:18.396Z,4.90
2018-01-03T14:53:44.591Z,4.90
2018-01-03T14:56:10.816Z,4.90
2018-01-03T14:58:37.796Z,5.00
2018-01-03T15:01:04.003Z,5.00
2018-01-03T15:03:30.980Z,4.80
2018-01-03T15:05:57.200Z,4.80
2018-01-03T15:08:23.433Z,4.80
2018-01-03T15:10:49.655Z,4.80
2018-01-03T15:13:16.604Z,4.60
2018-01-03T15:15:42.825Z,4.50
2018-01-03T15:18:09.811Z,4.70
2018-01-03T15:20:36.030Z,4.60
2018-01-03T15:23:02.239Z,4.60
2018-01-03T15:25:28.465Z,4.60
2018-01-03T15:27:55.396Z,4.50
2018-01-03T15:30:22.356Z,4.50
2018-01-03T15:32:49.312Z,4.40
2018-01-03T15:35:15.544Z,4.30
2018-01-03T15:37:41.777Z,4.30
2018-01-03T15:40:07.981Z,4.30
2018-01-03T15:42:34.948Z,4.30
2018-01-03T15:45:01.149Z,4.30
2018-01-03T15:47:27.381Z,4.50
2018-01-03T15:49:53.600Z,4.60
2018-01-03T15:52:19.800Z,4.50
2018-01-03T15:54:46.031Z,4.60
2018-01-03T15:57:12.250Z,4.60
2018-01-03T15:59:38.492Z,4.70
2018-01-03T16:02:04.741Z,4.60
2018-01-03T16:04:30.975Z,4.60
2018-01-03T16:06:57.229Z,4.60
2018-01-03T16:09:24.181Z,4.60
2018-01-03T16:11:51.152Z,4.50
2018-01-03T16:14:17.390Z,4.40
2018-01-03T16:16:43.583Z,4.50
2018-01-03T16:19:10.553Z,4.70
2018-01-03T16:21:36.748Z,4.60
2018-01-03T16:24:02.976Z,4.60
2018-01-03T16:26:29.189Z,4.60
2018-01-03T16:28:55.392Z,4.50
2018-01-03T16:31:21.609Z,4.60
2018-01-03T16:33:47.804Z,4.60
2018-01-03T16:36:14.774Z,4.60
2018-01-03T16:38:40.973Z,4.60
2018-01-03T16:41:07.204Z,4.60
2018-01-03T16:43:33.432Z,4.70
2018-01-03T16:45:59.656Z,4.60
2018-01-03T16:48:25.885Z,4.70
2018-01-03T16:50:52.824Z,4.70
2018-01-03T16:53:19.040Z,4.70
2018-01-03T16:55:45.276Z,4.80
2018-01-03T16:58:11.508Z,4.80
2018-01-03T17:00:37.757Z,4.80
2018-01-03T17:03:03.959Z,4.80
2018-01-03T17:05:30.192Z,4.80
2018-01-03T17:07:56.415Z,4.80
2018-01-03T17:10:22.645Z,4.80
2018-01-03T17:12:48.876Z,4.80
2018-01-03T17:15:15.085Z,4.80
2018-01-03T17:17:41.299Z,4.80
2018-01-03T17:20:07.492Z,4.80
2018-01-03T17:22:34.468Z,4.80
2018-01-03T17:25:01.424Z,4.90
2018-01-03T17:27:27.637Z,4.80
2018-01-03T17:29:54.604Z,5.00
2018-01-03T17:32:20.807Z,4.90
2018-01-03T17:34:47.759Z,4.70
2018-01-03T17:37:14.716Z,4.80
2018-01-03T17:39:41.690Z,4.80
2018-01-03T17:42:08.021Z,4.70
2018-01-03T17:44:34.224Z,4.70
2018-01-03T17:47:01.196Z,4.70
2018-01-03T17:49:27.449Z,4.70
2018-01-03T17:51:53.660Z,4.80
2018-01-03T17:54:19.893Z,4.80
2018-01-03T17:56:46.117Z,4.80
2018-01-03T17:59:12.315Z,4.70
2018-01-03T18:01:39.328Z,4.60
2018-01-03T18:04:05.511Z,4.50
2018-01-03T18:06:31.763Z,4.60
2018-01-03T18:08:57.955Z,4.70
2018-01-03T18:11:24.925Z,4.60
2018-01-03T18:13:51.152Z,4.60
2018-01-03T18:16:17.362Z,4.60
2018-01-03T18:18:44.334Z,4.70
2018-01-03T18:21:10.537Z,4.60
2018-01-03T18:23:37.504Z,4.70
2018-01-03T18:26:03.709Z,4.60
2018-01-03T18:28:30.692Z,4.70
2018-01-03T18:30:56.940Z,4.60
2018-01-03T18:33:23.149Z,4.60
2018-01-03T18:35:49.373Z,4.70
2018-01-03T18:38:15.574Z,4.70
2018-01-03T18:40:42.547Z,4.80
2018-01-03T18:43:08.771Z,4.70
2018-01-03T18:45:34.972Z,4.80
2018-01-03T18:48:01.935Z,4.70
2018-01-03T18:50:28.876Z,4.80
2018-01-03T18:52:55.844Z,4.70
2018-01-03T18:55:22.045Z,4.70
2018-01-03T18:57:49.009Z,4.80
2018-01-03T19:00:15.236Z,4.80
2018-01-03T19:02:42.174Z,4.80
2018-01-03T19:05:09.180Z,4.80
2018-01-03T19:07:35.412Z,4.80
2018-01-03T19:10:01.636Z,4.80
2018-01-03T19:12:27.864Z,4.80
2018-01-03T19:14:54.065Z,4.70
2018-01-03T19:17:20.285Z,4.80
2018-01-03T19:19:46.492Z,4.80
2018-01-03T19:22:13.456Z,4.70
2018-01-03T19:24:40.405Z,4.70
2018-01-03T19:27:06.624Z,4.70
2018-01-03T19:29:33.652Z,4.70
2018-01-03T19:31:59.829Z,4.70
2018-01-03T19:34:26.056Z,4.70
2018-01-03T19:36:52.257Z,4.60
2018-01-03T19:39:19.221Z,4.50
2018-01-03T19:41:45.420Z,4.50
2018-01-03T19:44:11.640Z,4.40
2018-01-03T19:46:37.877Z,4.40
2018-01-03T19:49:04.076Z,4.40
2018-01-03T19:51:30.318Z,4.50
2018-01-03T19:53:56.529Z,4.50
2018-01-03T19:56:22.761Z,4.40
2018-01-03T19:58:48.988Z,4.40
2018-01-03T20:01:15.175Z,4.50
2018-01-03T20:03:42.150Z,4.40
2018-01-03T20:06:08.376Z,4.40
2018-01-03T20:08:34.617Z,4.40
2018-01-03T20:11:00.832Z,4.40
2018-01-03T20:13:27.036Z,4.40
2018-01-03T20:15:54.020Z,4.50
2018-01-03T20:18:20.250Z,4.50
2018-01-03T20:20:46.478Z,4.70
2018-01-03T20:23:12.681Z,4.60
2018-01-03T20:25:39.644Z,4.70
2018-01-03T20:28:05.869Z,4.60
2018-01-03T20:30:32.089Z,4.60
2018-01-03T20:32:58.320Z,4.60
2018-01-03T20:35:25.268Z,4.50
2018-01-03T20:37:52.237Z,4.60
2018-01-03T20:40:18.441Z,4.60
2018-01-03T20:42:45.403Z,4.60
2018-01-03T20:45:11.635Z,4.60
2018-01-03T20:47:37.842Z,4.70
2018-01-03T20:50:04.807Z,4.70
2018-01-03T20:52:31.007Z,4.70
2018-01-03T20:54:57.232Z,4.60
2018-01-03T20:57:23.462Z,4.70
2018-01-03T20:59:49.678Z,4.80
2018-01-03T21:02:15.920Z,4.70
2018-01-03T21:04:42.144Z,4.70
2018-01-03T21:07:08.389Z,4.60
2018-01-03T21:09:35.384Z,4.60
2018-01-03T21:12:01.608Z,4.60
2018-01-03T21:14:27.871Z,4.40
2018-01-03T21:16:54.133Z,4.30
2018-01-03T21:19:21.117Z,4.40
2018-01-03T21:21:47.327Z,4.40
2018-01-03T21:24:13.677Z,4.30
2018-01-03T21:26:39.906Z,4.40
2018-01-03T21:29:06.150Z,4.50
2018-01-03T21:31:32.371Z,4.60
2018-01-03T21:33:58.564Z,4.60
2018-01-03T21:36:25.528Z,4.70
2018-01-03T21:38:51.760Z,4.60
2018-01-03T21:41:17.978Z,4.70
2018-01-03T21:43:44.953Z,4.70
2018-01-03T21:46:11.149Z,4.70
2018-01-03T21:48:38.120Z,4.50
2018-01-03T21:51:04.343Z,4.50
2018-01-03T21:53:31.285Z,4.50
2018-01-03T21:55:57.520Z,4.50
2018-01-03T21:58:23.716Z,4.50
2018-01-03T22:00:49.931Z,4.50
2018-01-03T22:03:16.157Z,4.30
2018-01-03T22:05:42.352Z,4.30
2018-01-03T22:08:08.591Z,4.30
2018-01-03T22:10:34.788Z,4.20
2018-01-03T22:13:01.758Z,4.10
2018-01-03T22:15:27.980Z,4.00
2018-01-03T22:17:54.200Z,4.10
2018-01-03T22:20:20.416Z,4.20
2018-01-03T22:22:47.346Z,4.20
2018-01-03T22:25:13.565Z,4.20
2018-01-03T22:27:39.763Z,4.30
2018-01-03T22:30:05.980Z,4.30
2018-01-03T22:32:32.210Z,4.20
2018-01-03T22:34:58.416Z,4.20
2018-01-03T22:37:24.672Z,4.10
2018-01-03T22:39:50.867Z,4.10
2018-01-03T22:42:17.829Z,4.10
2018-01-03T22:44:44.044Z,4.10
2018-01-03T22:47:10.983Z,4.10
2018-01-03T22:49:37.217Z,4.10
2018-01-03T22:52:04.172Z,4.00
2018-01-03T22:54:31.197Z,4.20
2018-01-03T22:56:57.397Z,4.20
2018-01-03T22:59:23.612Z,4.10
2018-01-03T23:01:49.853Z,4.10
2018-01-03T23:04:16.056Z,4.00
2018-01-03T23:06:42.272Z,4.10
2018-01-03T23:09:09.204Z,4.20
2018-01-03T23:11:35.417Z,4.10
2018-01-03T23:14:01.660Z,4.20
2018-01-03T23:16:27.889Z,4.10
2018-01-03T23:18:54.119Z,4.00
2018-01-03T23:21:20.320Z,3.90
2018-01-03T23:23:46.525Z,4.10
2018-01-03T23:26:12.794Z,4.10
2018-01-03T23:28:39.006Z,4.10
2018-01-03T23:31:05.238Z,4.00
2018-01-03T23:33:31.453Z,3.90
2018-01-03T23:35:57.680Z,4.10
2018-01-03T23:38:23.916Z,4.20
2018-01-03T23:40:50.135Z,4.10
2018-01-03T23:43:16.364Z,4.10
2018-01-03T23:45:42.552Z,4.00
2018-01-03T23:48:09.509Z,4.10
2018-01-03T23:50:36.478Z,4.10
2018-01-03T23:53:02.668Z,4.10
2018-01-03T23:55:28.907Z,4.10
2018-01-03T23:57:55.843Z,4.20
